sensor_id;sensor_type;location;lat;lon;timestamp;P1;durP1;ratioP1;P2;durP2;ratioP2
41817;SDS011;27493;51.730;5.294;2022-09-01T00:00:23;1.20;;;1.10;;
41817;SDS011;27493;51.730;5.294;2022-09-01T00:02:53;2.37;;;1.37;;
41817;SDS011;27493;51.730;5.294;2022-09-01T00:05:18;1.23;;;1.13;;
41817;SDS011;27493;51.730;5.294;2022-09-01T00:07:43;2.10;;;1.30;;
41817;SDS011;27493;51.730;5.294;2022-09-01T00:10:09;1.10;;;1.10;;
41817;SDS011;27493;51.730;5.294;2022-09-01T00:12:35;1.20;;;1.10;;
41817;SDS011;27493;51.730;5.294;2022-09-01T00:15:00;1.83;;;1.30;;
41817;SDS011;27493;51.730;5.294;2022-09-01T00:17:25;1.40;;;1.30;;
41817;SDS011;27493;51.730;5.294;2022-09-01T00:19:50;3.33;;;1.40;;
41817;SDS011;27493;51.730;5.294;2022-09-01T00:22:16;1.00;;;1.00;;
41817;SDS011;27493;51.730;5.294;2022-09-01T00:24:41;1.23;;;1.10;;
41817;SDS011;27493;51.730;5.294;2022-09-01T00:27:06;1.20;;;1.07;;
41817;SDS011;27493;51.730;5.294;2022-09-01T00:29:31;1.63;;;1.40;;
41817;SDS011;27493;51.730;5.294;2022-09-01T00:31:57;1.33;;;1.00;;
41817;SDS011;27493;51.730;5.294;2022-09-01T00:34:22;1.20;;;1.13;;
41817;SDS011;27493;51.730;5.294;2022-09-01T00:36:47;5.17;;;1.30;;
41817;SDS011;27493;51.730;5.294;2022-09-01T00:39:12;2.43;;;1.20;;
41817;SDS011;27493;51.730;5.294;2022-09-01T00:41:38;2.67;;;1.20;;
41817;SDS011;27493;51.730;5.294;2022-09-01T00:44:07;1.43;;;1.27;;
41817;SDS011;27493;51.730;5.294;2022-09-01T00:46:37;1.87;;;1.20;;
41817;SDS011;27493;51.730;5.294;2022-09-01T00:49:05;3.13;;;1.30;;
41817;SDS011;27493;51.730;5.294;2022-09-01T00:51:32;3.50;;;1.40;;
41817;SDS011;27493;51.730;5.294;2022-09-01T00:53:58;3.93;;;1.30;;
41817;SDS011;27493;51.730;5.294;2022-09-01T00:56:24;1.40;;;1.30;;
41817;SDS011;27493;51.730;5.294;2022-09-01T00:58:50;1.80;;;1.30;;
41817;SDS011;27493;51.730;5.294;2022-09-01T01:01:16;1.53;;;1.43;;
41817;SDS011;27493;51.730;5.294;2022-09-01T01:03:41;2.03;;;1.27;;
41817;SDS011;27493;51.730;5.294;2022-09-01T01:06:11;1.97;;;1.30;;
41817;SDS011;27493;51.730;5.294;2022-09-01T01:08:38;1.40;;;1.30;;
41817;SDS011;27493;51.730;5.294;2022-09-01T01:11:08;1.70;;;1.57;;
41817;SDS011;27493;51.730;5.294;2022-09-01T01:13:54;3.60;;;1.40;;
41817;SDS011;27493;51.730;5.294;2022-09-01T01:16:20;4.33;;;1.30;;
41817;SDS011;27493;51.730;5.294;2022-09-01T01:18:46;1.50;;;1.40;;
41817;SDS011;27493;51.730;5.294;2022-09-01T01:21:19;1.30;;;1.20;;
41817;SDS011;27493;51.730;5.294;2022-09-01T01:26:33;1.40;;;1.17;;
41817;SDS011;27493;51.730;5.294;2022-09-01T01:28:58;1.77;;;1.43;;
41817;SDS011;27493;51.730;5.294;2022-09-01T01:31:26;1.53;;;1.43;;
41817;SDS011;27493;51.730;5.294;2022-09-01T01:33:53;1.43;;;1.33;;
41817;SDS011;27493;51.730;5.294;2022-09-01T01:36:23;3.07;;;1.50;;
41817;SDS011;27493;51.730;5.294;2022-09-01T01:38:56;1.50;;;1.40;;
41817;SDS011;27493;51.730;5.294;2022-09-01T01:41:28;3.23;;;1.47;;
41817;SDS011;27493;51.730;5.294;2022-09-01T01:43:54;1.90;;;1.23;;
41817;SDS011;27493;51.730;5.294;2022-09-01T01:46:20;1.30;;;1.20;;
41817;SDS011;27493;51.730;5.294;2022-09-01T01:48:46;4.40;;;1.50;;
41817;SDS011;27493;51.730;5.294;2022-09-01T01:51:11;1.92;;;1.50;;
41817;SDS011;27493;51.730;5.294;2022-09-01T01:53:37;2.27;;;1.57;;
41817;SDS011;27493;51.730;5.294;2022-09-01T01:56:03;1.47;;;1.30;;
41817;SDS011;27493;51.730;5.294;2022-09-01T01:58:30;1.87;;;1.27;;
41817;SDS011;27493;51.730;5.294;2022-09-01T02:00:56;1.27;;;1.17;;
41817;SDS011;27493;51.730;5.294;2022-09-01T02:03:23;2.33;;;1.37;;
41817;SDS011;27493;51.730;5.294;2022-09-01T02:05:50;2.03;;;1.60;;
41817;SDS011;27493;51.730;5.294;2022-09-01T02:08:15;1.57;;;1.47;;
41817;SDS011;27493;51.730;5.294;2022-09-01T02:10:45;1.50;;;1.40;;
41817;SDS011;27493;51.730;5.294;2022-09-01T02:13:11;2.17;;;1.73;;
41817;SDS011;27493;51.730;5.294;2022-09-01T02:15:41;3.07;;;1.73;;
41817;SDS011;27493;51.730;5.294;2022-09-01T02:18:17;1.50;;;1.40;;
41817;SDS011;27493;51.730;5.294;2022-09-01T02:20:47;1.20;;;1.10;;
41817;SDS011;27493;51.730;5.294;2022-09-01T02:23:13;1.90;;;1.63;;
41817;SDS011;27493;51.730;5.294;2022-09-01T02:25:40;2.50;;;1.50;;
41817;SDS011;27493;51.730;5.294;2022-09-01T02:28:09;3.77;;;1.70;;
41817;SDS011;27493;51.730;5.294;2022-09-01T02:30:39;1.50;;;1.40;;
41817;SDS011;27493;51.730;5.294;2022-09-01T02:33:05;2.63;;;1.13;;
41817;SDS011;27493;51.730;5.294;2022-09-01T02:35:32;2.03;;;1.50;;
41817;SDS011;27493;51.730;5.294;2022-09-01T02:37:58;3.20;;;1.33;;
41817;SDS011;27493;51.730;5.294;2022-09-01T02:40:24;4.13;;;1.60;;
41817;SDS011;27493;51.730;5.294;2022-09-01T02:42:50;1.97;;;1.63;;
41817;SDS011;27493;51.730;5.294;2022-09-01T02:45:18;2.10;;;1.60;;
41817;SDS011;27493;51.730;5.294;2022-09-01T02:47:43;1.73;;;1.63;;
41817;SDS011;27493;51.730;5.294;2022-09-01T02:50:10;5.70;;;1.50;;
41817;SDS011;27493;51.730;5.294;2022-09-01T02:52:41;1.97;;;1.47;;
41817;SDS011;27493;51.730;5.294;2022-09-01T02:55:07;1.67;;;1.57;;
41817;SDS011;27493;51.730;5.294;2022-09-01T02:57:32;2.03;;;1.43;;
41817;SDS011;27493;51.730;5.294;2022-09-01T02:59:58;2.73;;;1.47;;
41817;SDS011;27493;51.730;5.294;2022-09-01T03:02:23;2.13;;;1.37;;
41817;SDS011;27493;51.730;5.294;2022-09-01T03:04:52;1.70;;;1.60;;
41817;SDS011;27493;51.730;5.294;2022-09-01T03:07:19;1.80;;;1.60;;
41817;SDS011;27493;51.730;5.294;2022-09-01T03:09:46;1.70;;;1.60;;
41817;SDS011;27493;51.730;5.294;2022-09-01T03:12:11;2.23;;;1.67;;
41817;SDS011;27493;51.730;5.294;2022-09-01T03:14:36;4.53;;;1.60;;
41817;SDS011;27493;51.730;5.294;2022-09-01T03:17:01;1.50;;;1.40;;
41817;SDS011;27493;51.730;5.294;2022-09-01T03:19:27;1.73;;;1.63;;
41817;SDS011;27493;51.730;5.294;2022-09-01T03:21:56;2.13;;;1.70;;
41817;SDS011;27493;51.730;5.294;2022-09-01T03:24:23;1.87;;;1.73;;
41817;SDS011;27493;51.730;5.294;2022-09-01T03:26:49;1.87;;;1.60;;
41817;SDS011;27493;51.730;5.294;2022-09-01T03:29:14;4.87;;;1.77;;
41817;SDS011;27493;51.730;5.294;2022-09-01T03:31:39;1.60;;;1.50;;
41817;SDS011;27493;51.730;5.294;2022-09-01T03:34:05;3.30;;;1.70;;
41817;SDS011;27493;51.730;5.294;2022-09-01T03:36:30;2.67;;;1.60;;
41817;SDS011;27493;51.730;5.294;2022-09-01T03:38:57;1.70;;;1.60;;
41817;SDS011;27493;51.730;5.294;2022-09-01T03:41:23;2.00;;;1.80;;
41817;SDS011;27493;51.730;5.294;2022-09-01T03:43:50;2.33;;;1.93;;
41817;SDS011;27493;51.730;5.294;2022-09-01T03:46:18;2.40;;;1.87;;
41817;SDS011;27493;51.730;5.294;2022-09-01T03:48:45;2.10;;;1.90;;
41817;SDS011;27493;51.730;5.294;2022-09-01T03:51:13;4.87;;;1.93;;
41817;SDS011;27493;51.730;5.294;2022-09-01T03:53:38;2.03;;;1.83;;
41817;SDS011;27493;51.730;5.294;2022-09-01T03:56:04;2.50;;;1.70;;
41817;SDS011;27493;51.730;5.294;2022-09-01T03:58:30;3.60;;;1.77;;
41817;SDS011;27493;51.730;5.294;2022-09-01T04:00:56;1.70;;;1.60;;
41817;SDS011;27493;51.730;5.294;2022-09-01T04:03:23;2.00;;;1.77;;
41817;SDS011;27493;51.730;5.294;2022-09-01T04:05:49;1.60;;;1.50;;
41817;SDS011;27493;51.730;5.294;2022-09-01T04:08:15;1.80;;;1.70;;
41817;SDS011;27493;51.730;5.294;2022-09-01T04:10:45;2.03;;;1.60;;
41817;SDS011;27493;51.730;5.294;2022-09-01T04:13:13;3.83;;;1.70;;
41817;SDS011;27493;51.730;5.294;2022-09-01T04:15:38;2.00;;;1.80;;
41817;SDS011;27493;51.730;5.294;2022-09-01T04:18:04;2.90;;;1.60;;
41817;SDS011;27493;51.730;5.294;2022-09-01T04:20:43;2.90;;;1.80;;
41817;SDS011;27493;51.730;5.294;2022-09-01T04:23:17;2.23;;;1.80;;
41817;SDS011;27493;51.730;5.294;2022-09-01T04:25:46;2.67;;;1.53;;
41817;SDS011;27493;51.730;5.294;2022-09-01T04:28:14;2.07;;;1.87;;
41817;SDS011;27493;51.730;5.294;2022-09-01T04:30:47;2.00;;;1.80;;
41817;SDS011;27493;51.730;5.294;2022-09-01T04:33:13;1.83;;;1.60;;
41817;SDS011;27493;51.730;5.294;2022-09-01T04:35:40;1.60;;;1.50;;
41817;SDS011;27493;51.730;5.294;2022-09-01T04:38:05;1.93;;;1.73;;
41817;SDS011;27493;51.730;5.294;2022-09-01T04:40:32;2.77;;;1.60;;
41817;SDS011;27493;51.730;5.294;2022-09-01T04:42:58;1.87;;;1.67;;
41817;SDS011;27493;51.730;5.294;2022-09-01T04:45:23;1.90;;;1.70;;
41817;SDS011;27493;51.730;5.294;2022-09-01T04:47:51;2.17;;;1.97;;
41817;SDS011;27493;51.730;5.294;2022-09-01T04:50:17;3.77;;;1.90;;
41817;SDS011;27493;51.730;5.294;2022-09-01T04:52:45;3.20;;;1.70;;
41817;SDS011;27493;51.730;5.294;2022-09-01T04:55:12;2.20;;;1.73;;
41817;SDS011;27493;51.730;5.294;2022-09-01T04:57:41;4.63;;;2.27;;
41817;SDS011;27493;51.730;5.294;2022-09-01T05:00:12;2.47;;;1.90;;
41817;SDS011;27493;51.730;5.294;2022-09-01T05:02:46;5.10;;;1.80;;
41817;SDS011;27493;51.730;5.294;2022-09-01T05:05:11;2.63;;;2.07;;
41817;SDS011;27493;51.730;5.294;2022-09-01T05:07:36;2.17;;;1.90;;
41817;SDS011;27493;51.730;5.294;2022-09-01T05:10:01;2.63;;;1.60;;
41817;SDS011;27493;51.730;5.294;2022-09-01T05:12:27;2.17;;;1.63;;
41817;SDS011;27493;51.730;5.294;2022-09-01T05:14:53;2.67;;;2.03;;
41817;SDS011;27493;51.730;5.294;2022-09-01T05:17:19;2.30;;;2.00;;
41817;SDS011;27493;51.730;5.294;2022-09-01T05:19:46;3.33;;;2.00;;
41817;SDS011;27493;51.730;5.294;2022-09-01T05:22:11;5.53;;;1.80;;
41817;SDS011;27493;51.730;5.294;2022-09-01T05:24:37;3.30;;;2.00;;
41817;SDS011;27493;51.730;5.294;2022-09-01T05:27:05;4.10;;;1.80;;
41817;SDS011;27493;51.730;5.294;2022-09-01T05:29:31;3.43;;;2.00;;
41817;SDS011;27493;51.730;5.294;2022-09-01T05:31:56;2.33;;;1.50;;
41817;SDS011;27493;51.730;5.294;2022-09-01T05:34:23;2.80;;;1.90;;
41817;SDS011;27493;51.730;5.294;2022-09-01T05:36:52;3.77;;;2.00;;
41817;SDS011;27493;51.730;5.294;2022-09-01T05:39:18;3.10;;;1.90;;
41817;SDS011;27493;51.730;5.294;2022-09-01T05:41:44;2.43;;;2.10;;
41817;SDS011;27493;51.730;5.294;2022-09-01T05:44:10;4.70;;;1.90;;
41817;SDS011;27493;51.730;5.294;2022-09-01T05:46:36;1.90;;;1.80;;
41817;SDS011;27493;51.730;5.294;2022-09-01T05:49:03;2.03;;;1.90;;
41817;SDS011;27493;51.730;5.294;2022-09-01T05:51:30;2.53;;;1.97;;
41817;SDS011;27493;51.730;5.294;2022-09-01T05:53:59;1.83;;;1.70;;
41817;SDS011;27493;51.730;5.294;2022-09-01T05:56:26;1.87;;;1.70;;
41817;SDS011;27493;51.730;5.294;2022-09-01T05:58:52;2.30;;;2.10;;
41817;SDS011;27493;51.730;5.294;2022-09-01T06:01:22;3.50;;;2.03;;
41817;SDS011;27493;51.730;5.294;2022-09-01T06:03:49;2.10;;;1.90;;
41817;SDS011;27493;51.730;5.294;2022-09-01T06:06:17;2.23;;;1.97;;
41817;SDS011;27493;51.730;5.294;2022-09-01T06:08:42;2.30;;;1.97;;
41817;SDS011;27493;51.730;5.294;2022-09-01T06:11:12;2.13;;;1.90;;
41817;SDS011;27493;51.730;5.294;2022-09-01T06:13:40;2.27;;;2.07;;
41817;SDS011;27493;51.730;5.294;2022-09-01T06:16:06;2.33;;;2.13;;
41817;SDS011;27493;51.730;5.294;2022-09-01T06:18:33;3.27;;;2.07;;
41817;SDS011;27493;51.730;5.294;2022-09-01T06:20:58;2.10;;;1.90;;
41817;SDS011;27493;51.730;5.294;2022-09-01T06:23:23;2.37;;;2.17;;
41817;SDS011;27493;51.730;5.294;2022-09-01T06:25:49;3.53;;;1.97;;
41817;SDS011;27493;51.730;5.294;2022-09-01T06:28:15;2.47;;;2.23;;
41817;SDS011;27493;51.730;5.294;2022-09-01T06:30:41;2.10;;;1.90;;
41817;SDS011;27493;51.730;5.294;2022-09-01T06:33:08;3.33;;;2.20;;
41817;SDS011;27493;51.730;5.294;2022-09-01T06:35:35;2.40;;;2.17;;
41817;SDS011;27493;51.730;5.294;2022-09-01T06:38:01;3.63;;;2.10;;
41817;SDS011;27493;51.730;5.294;2022-09-01T06:40:26;3.57;;;2.30;;
41817;SDS011;27493;51.730;5.294;2022-09-01T06:42:52;2.80;;;2.20;;
41817;SDS011;27493;51.730;5.294;2022-09-01T06:45:19;2.20;;;2.00;;
41817;SDS011;27493;51.730;5.294;2022-09-01T06:47:44;2.67;;;2.30;;
41817;SDS011;27493;51.730;5.294;2022-09-01T06:50:11;2.43;;;2.23;;
41817;SDS011;27493;51.730;5.294;2022-09-01T06:52:38;3.47;;;2.57;;
41817;SDS011;27493;51.730;5.294;2022-09-01T06:55:04;3.63;;;2.00;;
41817;SDS011;27493;51.730;5.294;2022-09-01T06:57:45;4.37;;;2.17;;
41817;SDS011;27493;51.730;5.294;2022-09-01T07:00:13;5.47;;;2.30;;
41817;SDS011;27493;51.730;5.294;2022-09-01T07:02:43;4.00;;;2.30;;
41817;SDS011;27493;51.730;5.294;2022-09-01T07:05:10;3.57;;;2.20;;
41817;SDS011;27493;51.730;5.294;2022-09-01T07:07:35;3.53;;;2.30;;
41817;SDS011;27493;51.730;5.294;2022-09-01T07:10:02;4.30;;;2.47;;
41817;SDS011;27493;51.730;5.294;2022-09-01T07:12:27;2.73;;;2.20;;
41817;SDS011;27493;51.730;5.294;2022-09-01T07:14:55;4.47;;;2.10;;
41817;SDS011;27493;51.730;5.294;2022-09-01T07:17:22;2.90;;;2.57;;
41817;SDS011;27493;51.730;5.294;2022-09-01T07:19:48;2.30;;;2.00;;
41817;SDS011;27493;51.730;5.294;2022-09-01T07:22:13;2.43;;;2.10;;
41817;SDS011;27493;51.730;5.294;2022-09-01T07:24:38;2.30;;;2.10;;
41817;SDS011;27493;51.730;5.294;2022-09-01T07:27:04;5.20;;;2.43;;
41817;SDS011;27493;51.730;5.294;2022-09-01T07:29:29;2.93;;;2.27;;
41817;SDS011;27493;51.730;5.294;2022-09-01T07:31:55;3.33;;;2.23;;
41817;SDS011;27493;51.730;5.294;2022-09-01T07:34:20;2.43;;;2.20;;
41817;SDS011;27493;51.730;5.294;2022-09-01T07:36:46;4.33;;;2.27;;
41817;SDS011;27493;51.730;5.294;2022-09-01T07:39:11;2.23;;;1.90;;
41817;SDS011;27493;51.730;5.294;2022-09-01T07:41:38;1.87;;;1.73;;
41817;SDS011;27493;51.730;5.294;2022-09-01T07:44:06;3.73;;;2.10;;
41817;SDS011;27493;51.730;5.294;2022-09-01T07:46:34;3.57;;;2.33;;
41817;SDS011;27493;51.730;5.294;2022-09-01T07:49:00;3.07;;;2.10;;
41817;SDS011;27493;51.730;5.294;2022-09-01T07:51:26;2.83;;;1.97;;
41817;SDS011;27493;51.730;5.294;2022-09-01T07:53:51;2.40;;;1.90;;
41817;SDS011;27493;51.730;5.294;2022-09-01T07:56:17;2.93;;;1.70;;
41817;SDS011;27493;51.730;5.294;2022-09-01T07:58:44;4.20;;;1.83;;
41817;SDS011;27493;51.730;5.294;2022-09-01T08:01:10;3.90;;;2.10;;
41817;SDS011;27493;51.730;5.294;2022-09-01T08:03:36;1.93;;;1.60;;
41817;SDS011;27493;51.730;5.294;2022-09-01T08:06:08;4.30;;;1.90;;
41817;SDS011;27493;51.730;5.294;2022-09-01T08:08:35;2.10;;;1.90;;
41817;SDS011;27493;51.730;5.294;2022-09-01T08:11:01;2.17;;;1.97;;
41817;SDS011;27493;51.730;5.294;2022-09-01T08:13:26;2.53;;;1.90;;
41817;SDS011;27493;51.730;5.294;2022-09-01T08:15:52;2.07;;;1.60;;
41817;SDS011;27493;51.730;5.294;2022-09-01T08:18:17;1.60;;;1.40;;
41817;SDS011;27493;51.730;5.294;2022-09-01T08:20:43;3.10;;;1.60;;
41817;SDS011;27493;51.730;5.294;2022-09-01T08:23:10;2.70;;;1.50;;
41817;SDS011;27493;51.730;5.294;2022-09-01T08:25:36;1.70;;;1.40;;
41817;SDS011;27493;51.730;5.294;2022-09-01T08:28:01;1.40;;;1.30;;
41817;SDS011;27493;51.730;5.294;2022-09-01T08:30:27;1.90;;;1.50;;
41817;SDS011;27493;51.730;5.294;2022-09-01T08:32:52;1.80;;;1.50;;
41817;SDS011;27493;51.730;5.294;2022-09-01T08:35:17;1.67;;;1.47;;
41817;SDS011;27493;51.730;5.294;2022-09-01T08:37:43;1.63;;;1.30;;
41817;SDS011;27493;51.730;5.294;2022-09-01T08:40:10;3.60;;;1.43;;
41817;SDS011;27493;51.730;5.294;2022-09-01T08:42:39;1.40;;;1.30;;
41817;SDS011;27493;51.730;5.294;2022-09-01T08:47:38;1.40;;;1.20;;
41817;SDS011;27493;51.730;5.294;2022-09-01T08:50:03;0.90;;;0.90;;
41817;SDS011;27493;51.730;5.294;2022-09-01T08:54:56;1.00;;;1.00;;
41817;SDS011;27493;51.730;5.294;2022-09-01T08:57:37;1.30;;;1.20;;
41817;SDS011;27493;51.730;5.294;2022-09-01T09:00:04;4.07;;;1.40;;
41817;SDS011;27493;51.730;5.294;2022-09-01T09:02:38;1.80;;;1.20;;
41817;SDS011;27493;51.730;5.294;2022-09-01T09:05:51;1.50;;;1.30;;
41817;SDS011;27493;51.730;5.294;2022-09-01T09:08:07;1.07;;;0.97;;
41817;SDS011;27493;51.730;5.294;2022-09-01T09:10:42;1.40;;;1.10;;
41817;SDS011;27493;51.730;5.294;2022-09-01T09:16:01;1.13;;;1.13;;
41817;SDS011;27493;51.730;5.294;2022-09-01T09:18:32;5.03;;;1.30;;
41817;SDS011;27493;51.730;5.294;2022-09-01T09:21:01;1.70;;;1.13;;
41817;SDS011;27493;51.730;5.294;2022-09-01T09:23:30;1.30;;;1.20;;
41817;SDS011;27493;51.730;5.294;2022-09-01T09:25:57;5.47;;;1.33;;
41817;SDS011;27493;51.730;5.294;2022-09-01T09:28:22;1.20;;;1.10;;
41817;SDS011;27493;51.730;5.294;2022-09-01T09:30:47;1.87;;;1.30;;
41817;SDS011;27493;51.730;5.294;2022-09-01T09:33:31;1.13;;;1.03;;
41817;SDS011;27493;51.730;5.294;2022-09-01T09:36:14;3.53;;;1.10;;
41817;SDS011;27493;51.730;5.294;2022-09-01T09:38:40;1.50;;;1.27;;
41817;SDS011;27493;51.730;5.294;2022-09-01T09:41:19;1.70;;;1.27;;
41817;SDS011;27493;51.730;5.294;2022-09-01T09:43:46;1.40;;;1.30;;
41817;SDS011;27493;51.730;5.294;2022-09-01T09:46:20;1.97;;;1.20;;
41817;SDS011;27493;51.730;5.294;2022-09-01T09:48:45;1.17;;;1.00;;
41817;SDS011;27493;51.730;5.294;2022-09-01T09:51:29;1.30;;;1.00;;
41817;SDS011;27493;51.730;5.294;2022-09-01T09:53:54;2.13;;;1.27;;
41817;SDS011;27493;51.730;5.294;2022-09-01T09:56:21;1.27;;;1.00;;
41817;SDS011;27493;51.730;5.294;2022-09-01T09:58:50;1.75;;;1.02;;
41817;SDS011;27493;51.730;5.294;2022-09-01T10:03:57;0.98;;;0.90;;
41817;SDS011;27493;51.730;5.294;2022-09-01T10:06:34;1.25;;;1.00;;
41817;SDS011;27493;51.730;5.294;2022-09-01T10:09:01;0.85;;;0.85;;
41817;SDS011;27493;51.730;5.294;2022-09-01T10:13:52;0.70;;;0.70;;
41817;SDS011;27493;51.730;5.294;2022-09-01T10:16:20;1.00;;;0.95;;
41817;SDS011;27493;51.730;5.294;2022-09-01T10:18:47;0.90;;;0.90;;
41817;SDS011;27493;51.730;5.294;2022-09-01T10:21:23;1.13;;;1.00;;
41817;SDS011;27493;51.730;5.294;2022-09-01T10:23:50;1.98;;;0.98;;
41817;SDS011;27493;51.730;5.294;2022-09-01T10:26:18;0.77;;;0.77;;
41817;SDS011;27493;51.730;5.294;2022-09-01T10:28:50;1.00;;;0.90;;
41817;SDS011;27493;51.730;5.294;2022-09-01T10:31:17;2.70;;;0.90;;
41817;SDS011;27493;51.730;5.294;2022-09-01T10:33:42;0.80;;;0.80;;
41817;SDS011;27493;51.730;5.294;2022-09-01T10:36:08;2.40;;;0.95;;
41817;SDS011;27493;51.730;5.294;2022-09-01T10:38:33;0.95;;;0.80;;
41817;SDS011;27493;51.730;5.294;2022-09-01T10:40:58;1.02;;;0.93;;
41817;SDS011;27493;51.730;5.294;2022-09-01T10:43:39;0.80;;;0.80;;
41817;SDS011;27493;51.730;5.294;2022-09-01T10:48:33;0.95;;;0.85;;
41817;SDS011;27493;51.730;5.294;2022-09-01T10:53:57;0.95;;;0.95;;
41817;SDS011;27493;51.730;5.294;2022-09-01T10:56:39;0.98;;;0.80;;
41817;SDS011;27493;51.730;5.294;2022-09-01T11:04:05;1.85;;;1.10;;
41817;SDS011;27493;51.730;5.294;2022-09-01T11:09:05;1.00;;;0.90;;
41817;SDS011;27493;51.730;5.294;2022-09-01T11:11:36;2.33;;;1.00;;
41817;SDS011;27493;51.730;5.294;2022-09-01T11:14:11;1.73;;;1.10;;
41817;SDS011;27493;51.730;5.294;2022-09-01T11:16:40;1.80;;;1.17;;
41817;SDS011;27493;51.730;5.294;2022-09-01T11:19:20;0.88;;;0.80;;
41817;SDS011;27493;51.730;5.294;2022-09-01T11:21:47;0.80;;;0.80;;
41817;SDS011;27493;51.730;5.294;2022-09-01T11:27:11;2.17;;;0.90;;
41817;SDS011;27493;51.730;5.294;2022-09-01T11:32:23;0.80;;;0.80;;
41817;SDS011;27493;51.730;5.294;2022-09-01T11:34:49;0.82;;;0.82;;
41817;SDS011;27493;51.730;5.294;2022-09-01T11:37:16;1.35;;;0.80;;
41817;SDS011;27493;51.730;5.294;2022-09-01T11:39:48;1.00;;;0.80;;
41817;SDS011;27493;51.730;5.294;2022-09-01T11:42:24;1.15;;;1.00;;
41817;SDS011;27493;51.730;5.294;2022-09-01T11:47:29;0.75;;;0.73;;
41817;SDS011;27493;51.730;5.294;2022-09-01T11:49:56;1.05;;;0.90;;
41817;SDS011;27493;51.730;5.294;2022-09-01T11:52:23;1.00;;;0.88;;
41817;SDS011;27493;51.730;5.294;2022-09-01T11:54:49;1.02;;;0.85;;
41817;SDS011;27493;51.730;5.294;2022-09-01T11:57:18;0.60;;;0.50;;
41817;SDS011;27493;51.730;5.294;2022-09-01T11:59:44;0.70;;;0.70;;
41817;SDS011;27493;51.730;5.294;2022-09-01T12:02:15;1.02;;;0.73;;
41817;SDS011;27493;51.730;5.294;2022-09-01T12:04:41;1.02;;;0.93;;
41817;SDS011;27493;51.730;5.294;2022-09-01T12:07:07;1.42;;;0.85;;
41817;SDS011;27493;51.730;5.294;2022-09-01T12:09:37;1.08;;;0.98;;
41817;SDS011;27493;51.730;5.294;2022-09-01T12:12:05;0.95;;;0.95;;
41817;SDS011;27493;51.730;5.294;2022-09-01T12:14:31;0.77;;;0.77;;
41817;SDS011;27493;51.730;5.294;2022-09-01T12:17:01;0.70;;;0.70;;
41817;SDS011;27493;51.730;5.294;2022-09-01T12:19:30;0.77;;;0.70;;
41817;SDS011;27493;51.730;5.294;2022-09-01T12:24:24;1.20;;;1.10;;
41817;SDS011;27493;51.730;5.294;2022-09-01T12:26:51;1.77;;;0.65;;
41817;SDS011;27493;51.730;5.294;2022-09-01T12:29:21;1.25;;;0.75;;
41817;SDS011;27493;51.730;5.294;2022-09-01T12:31:48;0.57;;;0.55;;
41817;SDS011;27493;51.730;5.294;2022-09-01T12:39:33;0.63;;;0.63;;
41817;SDS011;27493;51.730;5.294;2022-09-01T12:42:03;2.00;;;0.95;;
41817;SDS011;27493;51.730;5.294;2022-09-01T12:44:33;0.70;;;0.70;;
41817;SDS011;27493;51.730;5.294;2022-09-01T12:49:48;1.90;;;0.60;;
41817;SDS011;27493;51.730;5.294;2022-09-01T12:54:38;1.27;;;0.50;;
41817;SDS011;27493;51.730;5.294;2022-09-01T12:57:04;0.60;;;0.60;;
41817;SDS011;27493;51.730;5.294;2022-09-01T12:59:29;1.08;;;0.73;;
41817;SDS011;27493;51.730;5.294;2022-09-01T13:01:54;1.03;;;0.50;;
41817;SDS011;27493;51.730;5.294;2022-09-01T13:06:45;2.58;;;0.50;;
41817;SDS011;27493;51.730;5.294;2022-09-01T13:09:10;1.35;;;0.65;;
41817;SDS011;27493;51.730;5.294;2022-09-01T13:11:35;3.40;;;0.93;;
41817;SDS011;27493;51.730;5.294;2022-09-01T13:14:01;0.40;;;0.40;;
41817;SDS011;27493;51.730;5.294;2022-09-01T13:16:26;0.93;;;0.67;;
41817;SDS011;27493;51.730;5.294;2022-09-01T13:18:51;1.65;;;0.80;;
41817;SDS011;27493;51.730;5.294;2022-09-01T13:21:16;0.60;;;0.60;;
41817;SDS011;27493;51.730;5.294;2022-09-01T13:23:42;2.30;;;0.50;;
41817;SDS011;27493;51.730;5.294;2022-09-01T13:26:08;2.05;;;0.77;;
41817;SDS011;27493;51.730;5.294;2022-09-01T13:28:34;1.42;;;0.70;;
41817;SDS011;27493;51.730;5.294;2022-09-01T13:31:00;0.57;;;0.57;;
41817;SDS011;27493;51.730;5.294;2022-09-01T13:33:26;2.28;;;0.70;;
41817;SDS011;27493;51.730;5.294;2022-09-01T13:35:51;0.52;;;0.52;;
41817;SDS011;27493;51.730;5.294;2022-09-01T13:38:17;0.90;;;0.68;;
41817;SDS011;27493;51.730;5.294;2022-09-01T13:40:43;0.57;;;0.57;;
41817;SDS011;27493;51.730;5.294;2022-09-01T13:43:09;1.75;;;0.70;;
41817;SDS011;27493;51.730;5.294;2022-09-01T13:45:35;0.60;;;0.60;;
41817;SDS011;27493;51.730;5.294;2022-09-01T13:48:02;0.93;;;0.80;;
41817;SDS011;27493;51.730;5.294;2022-09-01T13:50:27;1.52;;;0.68;;
41817;SDS011;27493;51.730;5.294;2022-09-01T13:52:54;0.52;;;0.52;;
41817;SDS011;27493;51.730;5.294;2022-09-01T13:55:27;0.80;;;0.80;;
41817;SDS011;27493;51.730;5.294;2022-09-01T13:57:52;1.20;;;0.70;;
41817;SDS011;27493;51.730;5.294;2022-09-01T14:00:19;1.00;;;0.80;;
41817;SDS011;27493;51.730;5.294;2022-09-01T14:02:45;0.60;;;0.60;;
41817;SDS011;27493;51.730;5.294;2022-09-01T14:05:18;0.68;;;0.68;;
41817;SDS011;27493;51.730;5.294;2022-09-01T14:07:44;1.05;;;0.80;;
41817;SDS011;27493;51.730;5.294;2022-09-01T14:10:10;0.80;;;0.80;;
41817;SDS011;27493;51.730;5.294;2022-09-01T14:12:35;0.90;;;0.68;;
41817;SDS011;27493;51.730;5.294;2022-09-01T14:15:01;2.15;;;0.65;;
41817;SDS011;27493;51.730;5.294;2022-09-01T14:17:26;1.15;;;0.80;;
41817;SDS011;27493;51.730;5.294;2022-09-01T14:19:51;0.50;;;0.50;;
41817;SDS011;27493;51.730;5.294;2022-09-01T14:22:17;1.90;;;0.80;;
41817;SDS011;27493;51.730;5.294;2022-09-01T14:24:42;0.70;;;0.70;;
41817;SDS011;27493;51.730;5.294;2022-09-01T14:27:08;0.60;;;0.60;;
41817;SDS011;27493;51.730;5.294;2022-09-01T14:29:33;5.67;;;0.80;;
41817;SDS011;27493;51.730;5.294;2022-09-01T14:31:58;0.70;;;0.70;;
41817;SDS011;27493;51.730;5.294;2022-09-01T14:34:23;1.40;;;0.70;;
41817;SDS011;27493;51.730;5.294;2022-09-01T14:36:49;1.17;;;0.70;;
41817;SDS011;27493;51.730;5.294;2022-09-01T14:39:14;0.68;;;0.60;;
41817;SDS011;27493;51.730;5.294;2022-09-01T14:41:40;1.10;;;0.63;;
41817;SDS011;27493;51.730;5.294;2022-09-01T14:44:05;0.93;;;0.80;;
41817;SDS011;27493;51.730;5.294;2022-09-01T14:46:30;1.23;;;0.90;;
41817;SDS011;27493;51.730;5.294;2022-09-01T14:48:58;3.08;;;0.88;;
41817;SDS011;27493;51.730;5.294;2022-09-01T14:51:24;0.70;;;0.70;;
41817;SDS011;27493;51.730;5.294;2022-09-01T14:53:51;0.60;;;0.60;;
41817;SDS011;27493;51.730;5.294;2022-09-01T14:56:17;0.73;;;0.73;;
41817;SDS011;27493;51.730;5.294;2022-09-01T14:58:43;0.80;;;0.63;;
41817;SDS011;27493;51.730;5.294;2022-09-01T15:01:12;1.27;;;0.90;;
41817;SDS011;27493;51.730;5.294;2022-09-01T15:03:39;0.70;;;0.70;;
41817;SDS011;27493;51.730;5.294;2022-09-01T15:06:04;0.73;;;0.65;;
41817;SDS011;27493;51.730;5.294;2022-09-01T15:08:29;0.98;;;0.63;;
41817;SDS011;27493;51.730;5.294;2022-09-01T15:10:54;2.00;;;0.63;;
41817;SDS011;27493;51.730;5.294;2022-09-01T15:13:20;0.60;;;0.60;;
41817;SDS011;27493;51.730;5.294;2022-09-01T15:15:45;0.90;;;0.90;;
41817;SDS011;27493;51.730;5.294;2022-09-01T15:18:10;0.77;;;0.70;;
41817;SDS011;27493;51.730;5.294;2022-09-01T15:20:42;0.85;;;0.68;;
41817;SDS011;27493;51.730;5.294;2022-09-01T15:23:18;0.70;;;0.70;;
41817;SDS011;27493;51.730;5.294;2022-09-01T15:25:43;0.68;;;0.63;;
41817;SDS011;27493;51.730;5.294;2022-09-01T15:28:08;0.70;;;0.70;;
41817;SDS011;27493;51.730;5.294;2022-09-01T15:30:34;0.85;;;0.85;;
41817;SDS011;27493;51.730;5.294;2022-09-01T15:32:59;1.23;;;0.73;;
41817;SDS011;27493;51.730;5.294;2022-09-01T15:35:26;0.60;;;0.60;;
41817;SDS011;27493;51.730;5.294;2022-09-01T15:37:51;0.80;;;0.80;;
41817;SDS011;27493;51.730;5.294;2022-09-01T15:40:17;1.98;;;0.73;;